sensor_id;sensor_type;location;lat;lon;timestamp;temperature;humidity
38241;DHT22;24037;49.536;8.500;2022-09-09T00:00:19;16.00;99.90
38241;DHT22;24037;49.536;8.500;2022-09-09T00:08:45;16.00;99.90
38241;DHT22;24037;49.536;8.500;2022-09-09T00:11:18;16.00;99.90
38241;DHT22;24037;49.536;8.500;2022-09-09T00:13:54;16.00;99.90
38241;DHT22;24037;49.536;8.500;2022-09-09T00:16:25;15.90;99.90
38241;DHT22;24037;49.536;8.500;2022-09-09T00:18:58;15.90;99.90
38241;DHT22;24037;49.536;8.500;2022-09-09T00:21:34;15.80;99.90
38241;DHT22;24037;49.536;8.500;2022-09-09T00:24:08;15.90;99.90
38241;DHT22;24037;49.536;8.500;2022-09-09T00:26:38;15.90;99.90
38241;DHT22;24037;49.536;8.500;2022-09-09T00:29:20;15.90;99.90
38241;DHT22;24037;49.536;8.500;2022-09-09T00:31:48;16.00;99.90
38241;DHT22;24037;49.536;8.500;2022-09-09T00:34:23;16.10;99.90
38241;DHT22;24037;49.536;8.500;2022-09-09T00:36:52;16.10;99.90
38241;DHT22;24037;49.536;8.500;2022-09-09T00:42:23;16.10;99.90
38241;DHT22;24037;49.536;8.500;2022-09-09T00:47:49;16.20;99.90
38241;DHT22;24037;49.536;8.500;2022-09-09T00:53:14;16.10;99.90
38241;DHT22;24037;49.536;8.500;2022-09-09T00:56:01;16.10;99.90
38241;DHT22;24037;49.536;8.500;2022-09-09T00:58:30;16.10;99.90
38241;DHT22;24037;49.536;8.500;2022-09-09T01:01:10;16.00;99.90
38241;DHT22;24037;49.536;8.500;2022-09-09T01:03:39;16.00;99.90
38241;DHT22;24037;49.536;8.500;2022-09-09T01:12:17;15.90;99.90
38241;DHT22;24037;49.536;8.500;2022-09-09T01:14:52;15.80;99.90
38241;DHT22;24037;49.536;8.500;2022-09-09T01:20:24;15.70;99.90
38241;DHT22;24037;49.536;8.500;2022-09-09T01:28:51;15.60;99.90
38241;DHT22;24037;49.536;8.500;2022-09-09T01:31:41;15.60;99.90
38241;DHT22;24037;49.536;8.500;2022-09-09T01:34:17;15.50;99.90
38241;DHT22;24037;49.536;8.500;2022-09-09T01:36:55;15.50;99.90
38241;DHT22;24037;49.536;8.500;2022-09-09T01:39:22;15.50;99.90
38241;DHT22;24037;49.536;8.500;2022-09-09T01:41:57;15.40;99.90
38241;DHT22;24037;49.536;8.500;2022-09-09T01:44:25;15.40;99.90
38241;DHT22;24037;49.536;8.500;2022-09-09T01:46:51;15.30;99.90
38241;DHT22;24037;49.536;8.500;2022-09-09T01:49:20;15.30;99.90
38241;DHT22;24037;49.536;8.500;2022-09-09T01:51:50;15.30;99.90
38241;DHT22;24037;49.536;8.500;2022-09-09T01:54:22;15.30;99.90
38241;DHT22;24037;49.536;8.500;2022-09-09T02:02:32;15.30;99.90
38241;DHT22;24037;49.536;8.500;2022-09-09T02:05:37;15.40;99.90
38241;DHT22;24037;49.536;8.500;2022-09-09T02:08:20;15.50;99.90
38241;DHT22;24037;49.536;8.500;2022-09-09T02:11:03;15.50;99.90
38241;DHT22;24037;49.536;8.500;2022-09-09T02:13:38;15.50;99.90
38241;DHT22;24037;49.536;8.500;2022-09-09T02:19:19;15.40;99.90
38241;DHT22;24037;49.536;8.500;2022-09-09T02:22:01;15.40;99.90
38241;DHT22;24037;49.536;8.500;2022-09-09T02:24:30;15.40;99.90
38241;DHT22;24037;49.536;8.500;2022-09-09T02:27:10;15.40;99.90
38241;DHT22;24037;49.536;8.500;2022-09-09T02:29:42;15.30;99.90
38241;DHT22;24037;49.536;8.500;2022-09-09T02:32:15;15.30;99.90
38241;DHT22;24037;49.536;8.500;2022-09-09T02:34:50;15.30;99.90
38241;DHT22;24037;49.536;8.500;2022-09-09T02:37:20;15.30;99.90
38241;DHT22;24037;49.536;8.500;2022-09-09T02:39:51;15.20;99.90
38241;DHT22;24037;49.536;8.500;2022-09-09T02:42:20;15.20;99.90
38241;DHT22;24037;49.536;8.500;2022-09-09T02:44:47;15.20;99.90
38241;DHT22;24037;49.536;8.500;2022-09-09T02:47:35;15.20;99.90
38241;DHT22;24037;49.536;8.500;2022-09-09T02:50:26;15.20;99.90
38241;DHT22;24037;49.536;8.500;2022-09-09T02:55:38;15.30;99.90
38241;DHT22;24037;49.536;8.500;2022-09-09T02:58:09;15.40;99.90
38241;DHT22;24037;49.536;8.500;2022-09-09T03:00:37;15.40;99.90
38241;DHT22;24037;49.536;8.500;2022-09-09T03:03:05;15.40;99.90
38241;DHT22;24037;49.536;8.500;2022-09-09T03:05:33;15.40;99.90
38241;DHT22;24037;49.536;8.500;2022-09-09T03:08:00;15.30;99.90
38241;DHT22;24037;49.536;8.500;2022-09-09T03:10:26;15.30;99.90
38241;DHT22;24037;49.536;8.500;2022-09-09T03:12:52;15.20;99.90
38241;DHT22;24037;49.536;8.500;2022-09-09T03:15:19;15.20;99.90
38241;DHT22;24037;49.536;8.500;2022-09-09T03:17:45;15.20;99.90
38241;DHT22;24037;49.536;8.500;2022-09-09T03:20:12;15.20;99.90
38241;DHT22;24037;49.536;8.500;2022-09-09T03:22:38;15.20;99.90
38241;DHT22;24037;49.536;8.500;2022-09-09T03:25:05;15.10;99.90
38241;DHT22;24037;49.536;8.500;2022-09-09T03:27:33;15.10;99.90
38241;DHT22;24037;49.536;8.500;2022-09-09T03:30:00;15.10;99.90
38241;DHT22;24037;49.536;8.500;2022-09-09T03:32:29;15.10;99.90
38241;DHT22;24037;49.536;8.500;2022-09-09T03:34:57;15.10;99.90
38241;DHT22;24037;49.536;8.500;2022-09-09T03:37:24;15.10;99.90
38241;DHT22;24037;49.536;8.500;2022-09-09T03:39:51;15.10;99.90
38241;DHT22;24037;49.536;8.500;2022-09-09T03:42:18;15.10;99.90
38241;DHT22;24037;49.536;8.500;2022-09-09T03:44:47;15.10;99.90
38241;DHT22;24037;49.536;8.500;2022-09-09T03:47:20;15.10;99.90
38241;DHT22;24037;49.536;8.500;2022-09-09T03:49:48;15.10;99.90
38241;DHT22;24037;49.536;8.500;2022-09-09T03:52:15;15.10;99.90
38241;DHT22;24037;49.536;8.500;2022-09-09T03:54:42;15.10;99.90
38241;DHT22;24037;49.536;8.500;2022-09-09T03:57:11;15.10;99.90
38241;DHT22;24037;49.536;8.500;2022-09-09T03:59:37;15.00;99.90
38241;DHT22;24037;49.536;8.500;2022-09-09T04:02:04;15.00;99.90
38241;DHT22;24037;49.536;8.500;2022-09-09T04:04:30;15.00;99.90
38241;DHT22;24037;49.536;8.500;2022-09-09T04:06:57;14.90;99.90
38241;DHT22;24037;49.536;8.500;2022-09-09T04:09:23;14.90;99.90
38241;DHT22;24037;49.536;8.500;2022-09-09T04:11:51;14.90;99.90
38241;DHT22;24037;49.536;8.500;2022-09-09T04:14:20;14.80;99.90
38241;DHT22;24037;49.536;8.500;2022-09-09T04:16:46;14.80;99.90
38241;DHT22;24037;49.536;8.500;2022-09-09T04:19:13;14.80;99.90
38241;DHT22;24037;49.536;8.500;2022-09-09T04:21:41;14.80;99.90
38241;DHT22;24037;49.536;8.500;2022-09-09T04:24:08;14.90;99.90
38241;DHT22;24037;49.536;8.500;2022-09-09T04:26:35;15.00;99.90
38241;DHT22;24037;49.536;8.500;2022-09-09T04:29:03;14.90;99.90
38241;DHT22;24037;49.536;8.500;2022-09-09T04:31:30;14.90;99.90
38241;DHT22;24037;49.536;8.500;2022-09-09T04:33:56;15.00;99.90
38241;DHT22;24037;49.536;8.500;2022-09-09T04:36:24;14.90;99.90
38241;DHT22;24037;49.536;8.500;2022-09-09T04:38:54;15.00;99.90
38241;DHT22;24037;49.536;8.500;2022-09-09T04:41:20;15.00;99.90
38241;DHT22;24037;49.536;8.500;2022-09-09T04:43:50;15.10;99.90
38241;DHT22;24037;49.536;8.500;2022-09-09T04:46:17;15.10;99.90
38241;DHT22;24037;49.536;8.500;2022-09-09T04:48:44;15.10;99.90
38241;DHT22;24037;49.536;8.500;2022-09-09T04:51:13;15.10;99.90
38241;DHT22;24037;49.536;8.500;2022-09-09T04:53:40;15.10;99.90
38241;DHT22;24037;49.536;8.500;2022-09-09T04:56:11;15.20;99.90
38241;DHT22;24037;49.536;8.500;2022-09-09T04:58:42;15.30;99.90
38241;DHT22;24037;49.536;8.500;2022-09-09T05:01:15;15.30;99.90
38241;DHT22;24037;49.536;8.500;2022-09-09T05:03:45;15.30;99.90
38241;DHT22;24037;49.536;8.500;2022-09-09T05:06:15;15.30;99.90
38241;DHT22;24037;49.536;8.500;2022-09-09T05:08:43;15.30;99.90
38241;DHT22;24037;49.536;8.500;2022-09-09T05:11:25;15.30;99.90
38241;DHT22;24037;49.536;8.500;2022-09-09T05:13:55;15.40;99.90
38241;DHT22;24037;49.536;8.500;2022-09-09T05:16:22;15.40;99.90
38241;DHT22;24037;49.536;8.500;2022-09-09T05:18:49;15.40;99.90
38241;DHT22;24037;49.536;8.500;2022-09-09T05:21:18;15.30;99.90
38241;DHT22;24037;49.536;8.500;2022-09-09T05:23:46;15.40;99.90
38241;DHT22;24037;49.536;8.500;2022-09-09T05:26:15;15.40;99.90
38241;DHT22;24037;49.536;8.500;2022-09-09T05:28:42;15.40;99.90
38241;DHT22;24037;49.536;8.500;2022-09-09T05:31:10;15.40;99.90
38241;DHT22;24037;49.536;8.500;2022-09-09T05:33:40;15.50;99.90
38241;DHT22;24037;49.536;8.500;2022-09-09T05:36:20;15.60;99.90
38241;DHT22;24037;49.536;8.500;2022-09-09T05:38:50;15.70;99.90
38241;DHT22;24037;49.536;8.500;2022-09-09T05:41:17;15.90;99.90
38241;DHT22;24037;49.536;8.500;2022-09-09T05:43:46;16.10;99.90
38241;DHT22;24037;49.536;8.500;2022-09-09T05:46:20;16.10;99.90
38241;DHT22;24037;49.536;8.500;2022-09-09T05:48:49;16.20;99.90
38241;DHT22;24037;49.536;8.500;2022-09-09T05:51:24;16.20;99.90
38241;DHT22;24037;49.536;8.500;2022-09-09T05:53:51;16.10;99.90
38241;DHT22;24037;49.536;8.500;2022-09-09T05:56:21;16.10;99.90
38241;DHT22;24037;49.536;8.500;2022-09-09T05:58:52;16.20;99.90
38241;DHT22;24037;49.536;8.500;2022-09-09T06:01:25;16.30;99.90
38241;DHT22;24037;49.536;8.500;2022-09-09T06:03:56;16.30;99.90
38241;DHT22;24037;49.536;8.500;2022-09-09T06:06:26;16.30;99.90
38241;DHT22;24037;49.536;8.500;2022-09-09T06:08:55;16.30;99.90
38241;DHT22;24037;49.536;8.500;2022-09-09T06:11:25;16.40;99.90
38241;DHT22;24037;49.536;8.500;2022-09-09T06:13:52;16.40;99.90
38241;DHT22;24037;49.536;8.500;2022-09-09T06:16:22;16.40;99.90
38241;DHT22;24037;49.536;8.500;2022-09-09T06:18:50;16.30;99.90
38241;DHT22;24037;49.536;8.500;2022-09-09T06:21:23;16.30;99.90
38241;DHT22;24037;49.536;8.500;2022-09-09T06:23:50;16.30;99.90
38241;DHT22;24037;49.536;8.500;2022-09-09T06:26:24;16.40;99.90
38241;DHT22;24037;49.536;8.500;2022-09-09T06:28:54;17.60;99.90
38241;DHT22;24037;49.536;8.500;2022-09-09T06:31:23;18.90;99.90
38241;DHT22;24037;49.536;8.500;2022-09-09T06:33:51;20.20;99.90
38241;DHT22;24037;49.536;8.500;2022-09-09T06:36:29;20.80;99.90
38241;DHT22;24037;49.536;8.500;2022-09-09T06:38:55;21.30;99.00
38241;DHT22;24037;49.536;8.500;2022-09-09T06:41:25;20.70;98.90
38241;DHT22;24037;49.536;8.500;2022-09-09T06:43:53;20.50;99.80
38241;DHT22;24037;49.536;8.500;2022-09-09T06:46:29;20.60;99.80
38241;DHT22;24037;49.536;8.500;2022-09-09T06:48:59;20.50;99.50
38241;DHT22;24037;49.536;8.500;2022-09-09T06:51:28;20.10;99.90
38241;DHT22;24037;49.536;8.500;2022-09-09T06:53:57;20.10;99.90
38241;DHT22;24037;49.536;8.500;2022-09-09T06:56:33;20.40;99.90
38241;DHT22;24037;49.536;8.500;2022-09-09T06:59:06;20.70;98.70
38241;DHT22;24037;49.536;8.500;2022-09-09T07:01:37;20.10;99.90
38241;DHT22;24037;49.536;8.500;2022-09-09T07:04:07;19.70;99.90
38241;DHT22;24037;49.536;8.500;2022-09-09T07:06:38;19.90;99.90
38241;DHT22;24037;49.536;8.500;2022-09-09T07:09:08;20.30;99.90
38241;DHT22;24037;49.536;8.500;2022-09-09T07:11:43;20.00;99.90
38241;DHT22;24037;49.536;8.500;2022-09-09T07:14:11;19.90;99.90
38241;DHT22;24037;49.536;8.500;2022-09-09T07:16:43;19.60;99.90
38241;DHT22;24037;49.536;8.500;2022-09-09T07:19:11;19.40;99.90
38241;DHT22;24037;49.536;8.500;2022-09-09T07:21:38;19.30;99.90
38241;DHT22;24037;49.536;8.500;2022-09-09T07:24:05;20.10;99.90
38241;DHT22;24037;49.536;8.500;2022-09-09T07:26:34;20.60;99.70
38241;DHT22;24037;49.536;8.500;2022-09-09T07:29:03;20.50;99.60
38241;DHT22;24037;49.536;8.500;2022-09-09T07:31:32;20.30;99.90
38241;DHT22;24037;49.536;8.500;2022-09-09T07:33:59;19.60;99.90
38241;DHT22;24037;49.536;8.500;2022-09-09T07:36:31;19.20;99.90
38241;DHT22;24037;49.536;8.500;2022-09-09T07:39:03;18.90;99.90
38241;DHT22;24037;49.536;8.500;2022-09-09T07:41:51;18.70;99.90
38241;DHT22;24037;49.536;8.500;2022-09-09T07:44:24;18.50;99.90
38241;DHT22;24037;49.536;8.500;2022-09-09T07:47:06;18.60;99.90
38241;DHT22;24037;49.536;8.500;2022-09-09T07:49:36;18.60;99.90
38241;DHT22;24037;49.536;8.500;2022-09-09T07:52:04;18.50;99.90
38241;DHT22;24037;49.536;8.500;2022-09-09T07:54:32;18.60;99.90
38241;DHT22;24037;49.536;8.500;2022-09-09T07:57:00;18.90;99.90
38241;DHT22;24037;49.536;8.500;2022-09-09T07:59:29;19.10;99.90
38241;DHT22;24037;49.536;8.500;2022-09-09T08:01:57;19.30;99.90
38241;DHT22;24037;49.536;8.500;2022-09-09T08:04:27;19.60;99.90
38241;DHT22;24037;49.536;8.500;2022-09-09T08:06:57;19.60;99.90
38241;DHT22;24037;49.536;8.500;2022-09-09T08:09:25;19.50;99.90
38241;DHT22;24037;49.536;8.500;2022-09-09T08:11:53;19.30;99.90
38241;DHT22;24037;49.536;8.500;2022-09-09T08:14:19;19.30;99.90
38241;DHT22;24037;49.536;8.500;2022-09-09T08:16:47;19.40;99.90
38241;DHT22;24037;49.536;8.500;2022-09-09T08:19:17;19.40;99.90
38241;DHT22;24037;49.536;8.500;2022-09-09T08:21:45;19.40;99.90
38241;DHT22;24037;49.536;8.500;2022-09-09T08:24:13;19.30;99.90
38241;DHT22;24037;49.536;8.500;2022-09-09T08:26:48;18.90;99.90
38241;DHT22;24037;49.536;8.500;2022-09-09T08:29:17;18.50;99.90
38241;DHT22;24037;49.536;8.500;2022-09-09T08:31:53;18.30;99.90
38241;DHT22;24037;49.536;8.500;2022-09-09T08:34:24;18.30;99.90
38241;DHT22;24037;49.536;8.500;2022-09-09T08:36:53;18.20;99.90
38241;DHT22;24037;49.536;8.500;2022-09-09T08:39:23;18.40;99.90
38241;DHT22;24037;49.536;8.500;2022-09-09T08:45:12;18.80;99.90
38241;DHT22;24037;49.536;8.500;2022-09-09T08:48:00;19.20;99.90
38241;DHT22;24037;49.536;8.500;2022-09-09T08:50:36;19.50;99.90
38241;DHT22;24037;49.536;8.500;2022-09-09T08:53:24;19.80;99.90
38241;DHT22;24037;49.536;8.500;2022-09-09T08:55:56;19.80;99.90
38241;DHT22;24037;49.536;8.500;2022-09-09T08:58:52;19.90;99.90
38241;DHT22;24037;49.536;8.500;2022-09-09T09:07:16;21.20;99.90
38241;DHT22;24037;49.536;8.500;2022-09-09T09:12:47;20.40;99.90
38241;DHT22;24037;49.536;8.500;2022-09-09T09:15:19;20.30;99.90
38241;DHT22;24037;49.536;8.500;2022-09-09T09:17:47;20.80;99.80
38241;DHT22;24037;49.536;8.500;2022-09-09T09:20:23;20.60;99.90
38241;DHT22;24037;49.536;8.500;2022-09-09T09:22:56;21.40;99.80
38241;DHT22;24037;49.536;8.500;2022-09-09T09:25:35;22.60;96.50
38241;DHT22;24037;49.536;8.500;2022-09-09T09:28:25;23.00;93.80
38241;DHT22;24037;49.536;8.500;2022-09-09T09:31:11;23.20;92.30
38241;DHT22;24037;49.536;8.500;2022-09-09T09:33:50;23.30;91.10
38241;DHT22;24037;49.536;8.500;2022-09-09T09:36:32;23.00;90.20
38241;DHT22;24037;49.536;8.500;2022-09-09T09:39:02;22.20;92.40
38241;DHT22;24037;49.536;8.500;2022-09-09T09:41:37;21.60;94.40
38241;DHT22;24037;49.536;8.500;2022-09-09T09:44:21;21.00;95.90
38241;DHT22;24037;49.536;8.500;2022-09-09T09:46:48;20.50;98.30
38241;DHT22;24037;49.536;8.500;2022-09-09T09:49:15;21.00;98.00
38241;DHT22;24037;49.536;8.500;2022-09-09T09:51:43;21.70;95.70
38241;DHT22;24037;49.536;8.500;2022-09-09T09:56:40;21.20;94.40
38241;DHT22;24037;49.536;8.500;2022-09-09T09:59:43;20.40;95.80
38241;DHT22;24037;49.536;8.500;2022-09-09T10:02:16;19.90;98.20
38241;DHT22;24037;49.536;8.500;2022-09-09T10:04:45;19.60;98.70
38241;DHT22;24037;49.536;8.500;2022-09-09T10:07:19;19.40;99.00
38241;DHT22;24037;49.536;8.500;2022-09-09T10:09:53;19.40;99.40
38241;DHT22;24037;49.536;8.500;2022-09-09T10:15:35;19.30;99.90
38241;DHT22;24037;49.536;8.500;2022-09-09T10:18:22;19.30;99.90
38241;DHT22;24037;49.536;8.500;2022-09-09T10:24:09;19.70;99.90
38241;DHT22;24037;49.536;8.500;2022-09-09T10:29:30;20.40;99.00
38241;DHT22;24037;49.536;8.500;2022-09-09T10:37:54;21.00;95.90
38241;DHT22;24037;49.536;8.500;2022-09-09T10:40:37;21.10;95.60
38241;DHT22;24037;49.536;8.500;2022-09-09T10:57:29;21.20;97.40
38241;DHT22;24037;49.536;8.500;2022-09-09T11:00:03;21.20;97.10
38241;DHT22;24037;49.536;8.500;2022-09-09T11:02:33;21.40;95.50
38241;DHT22;24037;49.536;8.500;2022-09-09T11:07:48;21.40;94.70
38241;DHT22;24037;49.536;8.500;2022-09-09T11:10:24;21.60;94.60
38241;DHT22;24037;49.536;8.500;2022-09-09T11:12:56;21.70;95.00
38241;DHT22;24037;49.536;8.500;2022-09-09T11:15:35;22.00;93.30
38241;DHT22;24037;49.536;8.500;2022-09-09T11:18:04;22.20;90.90
38241;DHT22;24037;49.536;8.500;2022-09-09T11:20:30;22.20;89.20
38241;DHT22;24037;49.536;8.500;2022-09-09T11:23:03;22.20;88.30
38241;DHT22;24037;49.536;8.500;2022-09-09T11:25:40;22.40;88.50
38241;DHT22;24037;49.536;8.500;2022-09-09T11:33:49;21.70;89.80
38241;DHT22;24037;49.536;8.500;2022-09-09T11:36:36;21.70;90.70
38241;DHT22;24037;49.536;8.500;2022-09-09T11:39:20;21.70;90.60
38241;DHT22;24037;49.536;8.500;2022-09-09T11:41:53;21.70;89.80
38241;DHT22;24037;49.536;8.500;2022-09-09T11:44:30;21.50;89.40
38241;DHT22;24037;49.536;8.500;2022-09-09T11:46:56;21.40;90.50
38241;DHT22;24037;49.536;8.500;2022-09-09T11:49:28;21.50;90.10
38241;DHT22;24037;49.536;8.500;2022-09-09T11:51:55;21.50;89.60
38241;DHT22;24037;49.536;8.500;2022-09-09T11:54:31;21.40;89.20
38241;DHT22;24037;49.536;8.500;2022-09-09T11:56:58;21.40;89.30
38241;DHT22;24037;49.536;8.500;2022-09-09T11:59:30;21.30;87.80
38241;DHT22;24037;49.536;8.500;2022-09-09T12:02:14;21.20;87.20
38241;DHT22;24037;49.536;8.500;2022-09-09T12:04:48;21.20;89.50
38241;DHT22;24037;49.536;8.500;2022-09-09T12:07:34;21.10;89.70
38241;DHT22;24037;49.536;8.500;2022-09-09T12:12:35;21.20;90.40
38241;DHT22;24037;49.536;8.500;2022-09-09T12:20:32;20.80;93.80
38241;DHT22;24037;49.536;8.500;2022-09-09T12:26:03;20.10;99.90
38241;DHT22;24037;49.536;8.500;2022-09-09T12:28:55;17.90;99.90
38241;DHT22;24037;49.536;8.500;2022-09-09T12:31:37;15.90;99.90
38241;DHT22;24037;49.536;8.500;2022-09-09T12:37:14;15.00;99.90
38241;DHT22;24037;49.536;8.500;2022-09-09T12:39:55;15.10;99.90
38241;DHT22;24037;49.536;8.500;2022-09-09T12:42:22;15.60;99.90
38241;DHT22;24037;49.536;8.500;2022-09-09T12:47:21;16.20;99.90
38241;DHT22;24037;49.536;8.500;2022-09-09T12:49:50;16.60;99.90
38241;DHT22;24037;49.536;8.500;2022-09-09T12:52:27;16.90;99.90
38241;DHT22;24037;49.536;8.500;2022-09-09T12:54:57;16.90;99.90
38241;DHT22;24037;49.536;8.500;2022-09-09T12:57:24;17.00;99.90
38241;DHT22;24037;49.536;8.500;2022-09-09T12:59:52;17.20;99.90
38241;DHT22;24037;49.536;8.500;2022-09-09T13:02:21;17.40;99.90
38241;DHT22;24037;49.536;8.500;2022-09-09T13:04:49;17.40;99.90
38241;DHT22;24037;49.536;8.500;2022-09-09T13:07:17;17.30;99.90
38241;DHT22;24037;49.536;8.500;2022-09-09T13:09:45;17.20;99.90
38241;DHT22;24037;49.536;8.500;2022-09-09T13:12:21;17.00;99.90
38241;DHT22;24037;49.536;8.500;2022-09-09T13:14:53;16.80;99.90
38241;DHT22;24037;49.536;8.500;2022-09-09T13:17:25;16.60;99.90
38241;DHT22;24037;49.536;8.500;2022-09-09T13:19:55;16.30;99.90
38241;DHT22;24037;49.536;8.500;2022-09-09T13:22:31;16.10;99.90
38241;DHT22;24037;49.536;8.500;2022-09-09T13:25:17;16.00;99.90
38241;DHT22;24037;49.536;8.500;2022-09-09T13:28:02;16.00;99.90
38241;DHT22;24037;49.536;8.500;2022-09-09T13:30:34;16.20;99.90
38241;DHT22;24037;49.536;8.500;2022-09-09T13:33:23;16.40;99.90
38241;DHT22;24037;49.536;8.500;2022-09-09T13:35:56;16.60;99.90
38241;DHT22;24037;49.536;8.500;2022-09-09T13:38:27;16.70;99.90
38241;DHT22;24037;49.536;8.500;2022-09-09T13:40:57;17.00;99.90
38241;DHT22;24037;49.536;8.500;2022-09-09T13:43:26;17.40;99.90
38241;DHT22;24037;49.536;8.500;2022-09-09T13:45:58;17.20;99.90
38241;DHT22;24037;49.536;8.500;2022-09-09T13:48:24;17.40;99.90
38241;DHT22;24037;49.536;8.500;2022-09-09T13:51:02;17.30;99.90
38241;DHT22;24037;49.536;8.500;2022-09-09T13:53:30;17.30;99.90
38241;DHT22;24037;49.536;8.500;2022-09-09T13:55:57;17.10;99.90
38241;DHT22;24037;49.536;8.500;2022-09-09T13:58:24;17.10;99.90
38241;DHT22;24037;49.536;8.500;2022-09-09T14:00:52;17.40;99.90
38241;DHT22;24037;49.536;8.500;2022-09-09T14:03:19;17.70;99.90
38241;DHT22;24037;49.536;8.500;2022-09-09T14:05:46;17.80;99.90
38241;DHT22;24037;49.536;8.500;2022-09-09T14:08:27;17.70;99.90
38241;DHT22;24037;49.536;8.500;2022-09-09T14:10:58;17.60;99.90
38241;DHT22;24037;49.536;8.500;2022-09-09T14:13:25;17.70;99.90
38241;DHT22;24037;49.536;8.500;2022-09-09T14:15:51;17.80;99.90
38241;DHT22;24037;49.536;8.500;2022-09-09T14:18:18;17.80;99.90
38241;DHT22;24037;49.536;8.500;2022-09-09T14:20:44;17.90;99.90
38241;DHT22;24037;49.536;8.500;2022-09-09T14:23:11;17.90;99.90
38241;DHT22;24037;49.536;8.500;2022-09-09T14:25:44;17.90;99.90
38241;DHT22;24037;49.536;8.500;2022-09-09T14:28:12;17.90;99.90
38241;DHT22;24037;49.536;8.500;2022-09-09T14:30:40;17.60;99.90
38241;DHT22;24037;49.536;8.500;2022-09-09T14:33:08;17.60;99.90
38241;DHT22;24037;49.536;8.500;2022-09-09T14:35:35;17.90;99.90
38241;DHT22;24037;49.536;8.500;2022-09-09T14:38:03;17.70;99.90
38241;DHT22;24037;49.536;8.500;2022-09-09T14:40:29;17.50;99.90
38241;DHT22;24037;49.536;8.500;2022-09-09T14:42:56;17.40;99.90
38241;DHT22;24037;49.536;8.500;2022-09-09T14:45:23;17.80;99.90
38241;DHT22;24037;49.536;8.500;2022-09-09T14:47:51;18.00;99.90
38241;DHT22;24037;49.536;8.500;2022-09-09T14:50:18;17.90;99.90
38241;DHT22;24037;49.536;8.500;2022-09-09T14:52:45;17.70;99.90
38241;DHT22;24037;49.536;8.500;2022-09-09T14:55:11;17.40;99.90
38241;DHT22;24037;49.536;8.500;2022-09-09T14:57:37;17.20;99.90
38241;DHT22;24037;49.536;8.500;2022-09-09T15:00:05;17.10;99.90
38241;DHT22;24037;49.536;8.500;2022-09-09T15:02:31;17.10;99.90
38241;DHT22;24037;49.536;8.500;2022-09-09T15:04:58;17.10;99.90
38241;DHT22;24037;49.536;8.500;2022-09-09T15:07:25;17.00;99.90
38241;DHT22;24037;49.536;8.500;2022-09-09T15:09:51;17.00;99.90
38241;DHT22;24037;49.536;8.500;2022-09-09T15:12:19;16.90;99.90
38241;DHT22;24037;49.536;8.500;2022-09-09T15:14:46;17.00;99.90
38241;DHT22;24037;49.536;8.500;2022-09-09T15:17:14;17.00;99.90
38241;DHT22;24037;49.536;8.500;2022-09-09T15:19:40;17.10;99.90
38241;DHT22;24037;49.536;8.500;2022-09-09T15:22:08;17.20;99.90
38241;DHT22;24037;49.536;8.500;2022-09-09T15:24:34;17.20;99.90
38241;DHT22;24037;49.536;8.500;2022-09-09T15:27:01;17.10;99.90
38241;DHT22;24037;49.536;8.500;2022-09-09T15:29:28;16.80;99.90
38241;DHT22;24037;49.536;8.500;2022-09-09T15:31:54;16.60;99.90
38241;DHT22;24037;49.536;8.500;2022-09-09T15:34:23;16.40;99.90
38241;DHT22;24037;49.536;8.500;2022-09-09T15:36:50;16.30;99.90
38241;DHT22;24037;49.536;8.500;2022-09-09T15:39:17;16.30;99.90
38241;DHT22;24037;49.536;8.500;2022-09-09T15:41:45;16.20;99.90
38241;DHT22;24037;49.536;8.500;2022-09-09T15:44:13;16.10;99.90
38241;DHT22;24037;49.536;8.500;2022-09-09T15:49:15;16.00;99.90
38241;DHT22;24037;49.536;8.500;2022-09-09T15:51:47;16.10;99.90
38241;DHT22;24037;49.536;8.500;2022-09-09T15:54:18;16.10;99.90
38241;DHT22;24037;49.536;8.500;2022-09-09T15:56:47;16.10;99.90
38241;DHT22;24037;49.536;8.500;2022-09-09T15:59:16;16.10;99.90
38241;DHT22;24037;49.536;8.500;2022-09-09T16:01:42;16.30;99.90
38241;DHT22;24037;49.536;8.500;2022-09-09T16:04:10;16.50;99.90
38241;DHT22;24037;49.536;8.500;2022-09-09T16:06:36;16.70;99.90
38241;DHT22;24037;49.536;8.500;2022-09-09T16:09:04;16.80;99.90
38241;DHT22;24037;49.536;8.500;2022-09-09T16:11:33;17.00;99.90
38241;DHT22;24037;49.536;8.500;2022-09-09T16:14:01;17.10;99.90
38241;DHT22;24037;49.536;8.500;2022-09-09T16:16:28;17.10;99.90
38241;DHT22;24037;49.536;8.500;2022-09-09T16:19:01;17.20;99.90
38241;DHT22;24037;49.536;8.500;2022-09-09T16:21:31;17.20;99.90
38241;DHT22;24037;49.536;8.500;2022-09-09T16:23:59;17.10;99.90
38241;DHT22;24037;49.536;8.500;2022-09-09T16:26:27;17.10;99.90
38241;DHT22;24037;49.536;8.500;2022-09-09T16:28:53;16.90;99.90
38241;DHT22;24037;49.536;8.500;2022-09-09T16:31:22;16.80;99.90
38241;DHT22;24037;49.536;8.500;2022-09-09T16:33:49;16.70;99.90
38241;DHT22;24037;49.536;8.500;2022-09-09T16:36:21;16.60;99.90
38241;DHT22;24037;49.536;8.500;2022-09-09T16:38:47;16.50;99.90
38241;DHT22;24037;49.536;8.500;2022-09-09T16:41:14;16.40;99.90
38241;DHT22;24037;49.536;8.500;2022-09-09T16:43:41;16.30;99.90
38241;DHT22;24037;49.536;8.500;2022-09-09T16:46:16;16.30;99.90
38241;DHT22;24037;49.536;8.500;2022-09-09T16:48:44;16.30;99.90
38241;DHT22;24037;49.536;8.500;2022-09-09T16:51:18;16.30;99.90
38241;DHT22;24037;49.536;8.500;2022-09-09T16:53:45;16.30;99.90
38241;DHT22;24037;49.536;8.500;2022-09-09T16:56:16;16.20;99.90
38241;DHT22;24037;49.536;8.500;2022-09-09T16:58:43;16.20;99.90
38241;DHT22;24037;49.536;8.500;2022-09-09T17:01:11;16.20;99.90
38241;DHT22;24037;49.536;8.500;2022-09-09T17:03:40;16.20;99.90
38241;DHT22;24037;49.536;8.500;2022-09-09T17:06:15;16.40;99.90
38241;DHT22;24037;49.536;8.500;2022-09-09T17:08:42;16.40;99.90
38241;DHT22;24037;49.536;8.500;2022-09-09T17:11:16;16.20;99.90
38241;DHT22;24037;49.536;8.500;2022-09-09T17:13:46;16.00;99.90
38241;DHT22;24037;49.536;8.500;2022-09-09T17:16:14;15.90;99.90
38241;DHT22;24037;49.536;8.500;2022-09-09T17:18:40;15.90;99.90
38241;DHT22;24037;49.536;8.500;2022-09-09T17:21:13;15.80;99.90
38241;DHT22;24037;49.536;8.500;2022-09-09T17:23:41;15.80;99.90
38241;DHT22;24037;49.536;8.500;2022-09-09T17:26:10;15.70;99.90
38241;DHT22;24037;49.536;8.500;2022-09-09T17:28:40;15.70;99.90
38241;DHT22;24037;49.536;8.500;2022-09-09T17:31:08;15.70;99.90
38241;DHT22;24037;49.536;8.500;2022-09-09T17:33:39;15.60;99.90
38241;DHT22;24037;49.536;8.500;2022-09-09T17:36:16;15.60;99.90
38241;DHT22;24037;49.536;8.500;2022-09-09T17:38:43;15.60;99.90
38241;DHT22;24037;49.536;8.500;2022-09-09T17:43:44;15.60;99.90
38241;DHT22;24037;49.536;8.500;2022-09-09T17:46:20;15.60;99.90
38241;DHT22;24037;49.536;8.500;2022-09-09T17:48:48;15.60;99.90